createdAt,value
2023-03-14T00:01:55.882Z,12.05
2023-03-14T00:04:24.381Z,5.60
2023-03-14T00:06:52.831Z,4.20
2023-03-14T00:09:21.091Z,6.70
2023-03-14T00:11:49.535Z,2.75
2023-03-14T00:14:19.143Z,6.22
2023-03-14T00:16:48.781Z,3.92
2023-03-14T00:19:17.273Z,4.07
2023-03-14T00:21:45.621Z,8.00
2023-03-14T00:24:13.974Z,4.35
2023-03-14T00:26:42.358Z,4.10
2023-03-14T00:29:10.682Z,5.82
2023-03-14T00:31:41.855Z,4.18
2023-03-14T00:34:11.040Z,4.10
2023-03-14T00:36:39.473Z,2.47
2023-03-14T00:39:07.866Z,4.43
2023-03-14T00:41:36.263Z,2.05
2023-03-14T00:44:04.658Z,4.97
2023-03-14T00:46:32.985Z,6.05
2023-03-14T00:49:02.728Z,1.67
2023-03-14T00:51:31.076Z,3.13
2023-03-14T00:53:59.427Z,4.00
2023-03-14T00:56:27.858Z,2.28
2023-03-14T00:58:57.708Z,2.72
2023-03-14T01:01:26.512Z,3.20
2023-03-14T01:03:56.241Z,4.72
2023-03-14T01:06:27.662Z,4.40
2023-03-14T01:08:57.093Z,3.00
2023-03-14T01:11:28.297Z,3.35
2023-03-14T01:13:56.858Z,2.30
2023-03-14T01:16:28.397Z,3.25
2023-03-14T01:18:56.777Z,4.13
2023-03-14T01:21:28.235Z,2.60
2023-03-14T01:23:58.688Z,3.20
2023-03-14T01:26:29.254Z,4.03
2023-03-14T01:28:58.100Z,3.40
2023-03-14T01:31:27.786Z,3.65
2023-03-14T01:33:56.517Z,2.10
2023-03-14T01:36:26.180Z,3.42
2023-03-14T01:38:54.846Z,4.37
2023-03-14T01:41:27.701Z,5.03
2023-03-14T01:43:59.946Z,5.63
2023-03-14T01:46:40.972Z,4.65
2023-03-14T01:49:15.225Z,5.47
2023-03-14T01:51:52.650Z,5.13
2023-03-14T01:54:25.357Z,7.57
2023-03-14T01:56:58.756Z,10.10
2023-03-14T01:59:28.267Z,8.43
2023-03-14T02:01:58.391Z,5.15
2023-03-14T02:04:31.303Z,7.07
2023-03-14T02:07:06.254Z,10.00
2023-03-14T02:09:41.998Z,9.20
2023-03-14T02:12:15.837Z,10.27
2023-03-14T02:14:49.762Z,13.48
2023-03-14T02:17:26.752Z,12.70
2023-03-14T02:20:27.380Z,9.52
2023-03-14T02:22:59.732Z,8.43
2023-03-14T02:25:37.645Z,4.90
2023-03-14T02:28:07.375Z,4.07
2023-03-14T02:30:37.189Z,3.90
2023-03-14T02:33:08.972Z,6.07
2023-03-14T02:35:43.766Z,7.05
2023-03-14T02:38:19.588Z,7.78
2023-03-14T02:40:48.890Z,3.00
2023-03-14T02:43:19.399Z,5.00
2023-03-14T02:45:54.346Z,3.10
2023-03-14T02:48:27.956Z,3.90
2023-03-14T02:50:58.883Z,2.70
2023-03-14T02:53:30.177Z,5.60
2023-03-14T02:56:03.377Z,4.25
2023-03-14T02:58:35.167Z,4.78
2023-03-14T03:01:12.508Z,7.65
2023-03-14T03:03:40.946Z,5.55
2023-03-14T03:06:09.906Z,4.67
2023-03-14T03:08:39.815Z,2.97
2023-03-14T03:11:09.048Z,4.45
2023-03-14T03:13:39.140Z,7.05
2023-03-14T03:16:09.329Z,6.07
2023-03-14T03:18:37.609Z,5.97
2023-03-14T03:21:09.870Z,5.40
2023-03-14T03:23:38.229Z,5.63
2023-03-14T03:26:08.348Z,3.85
2023-03-14T03:28:38.119Z,6.38
2023-03-14T03:31:11.148Z,3.60
2023-03-14T03:33:41.289Z,10.73
2023-03-14T03:36:11.613Z,6.35
2023-03-14T03:38:41.862Z,7.50
2023-03-14T03:41:11.420Z,4.43
2023-03-14T03:43:41.341Z,5.20
2023-03-14T03:46:12.242Z,5.70
2023-03-14T03:48:41.368Z,5.05
2023-03-14T03:51:09.835Z,3.42
2023-03-14T03:53:38.490Z,9.53
2023-03-14T03:56:12.068Z,4.82
2023-03-14T03:58:43.172Z,2.70
2023-03-14T04:01:12.746Z,5.68
2023-03-14T04:03:41.942Z,4.70
2023-03-14T04:06:12.581Z,4.28
2023-03-14T04:08:42.728Z,4.40
2023-03-14T04:11:16.046Z,9.13
2023-03-14T04:13:55.813Z,5.90
2023-03-14T04:16:25.999Z,4.00
2023-03-14T04:19:00.264Z,3.15
2023-03-14T04:21:30.553Z,8.77
2023-03-14T04:23:59.770Z,7.50
2023-03-14T04:26:32.461Z,3.90
2023-03-14T04:29:02.030Z,4.45
2023-03-14T04:31:30.602Z,6.75
2023-03-14T04:33:58.932Z,2.95
2023-03-14T04:36:34.496Z,4.10
2023-03-14T04:39:06.464Z,6.07
2023-03-14T04:41:37.695Z,5.50
2023-03-14T04:44:07.713Z,3.67
2023-03-14T04:46:37.350Z,3.00
2023-03-14T04:49:08.468Z,2.40
2023-03-14T04:51:37.459Z,3.90
2023-03-14T04:54:06.039Z,3.83
2023-03-14T04:56:34.477Z,2.30
2023-03-14T04:59:04.707Z,3.70
2023-03-14T05:01:36.824Z,1.40
2023-03-14T05:04:33.834Z,0.90
2023-03-14T05:07:22.394Z,1.60
2023-03-14T05:10:18.785Z,2.47
2023-03-14T05:13:05.816Z,0.90
2023-03-14T05:16:06.089Z,2.20
2023-03-14T05:18:51.094Z,0.90
2023-03-14T05:21:45.949Z,1.40
2023-03-14T05:24:35.881Z,3.40
2023-03-14T05:27:04.304Z,1.10
2023-03-14T05:29:52.859Z,0.90
2023-03-14T05:32:24.977Z,1.90
2023-03-14T05:35:15.115Z,0.90
2023-03-14T05:38:03.006Z,1.50
2023-03-14T05:40:37.500Z,0.70
2023-03-14T05:43:28.750Z,0.60
2023-03-14T05:46:11.621Z,0.80
2023-03-14T05:48:51.867Z,0.90
2023-03-14T05:51:39.441Z,1.40
2023-03-14T05:54:39.733Z,1.00
2023-03-14T05:57:26.483Z,0.60
2023-03-14T06:00:18.283Z,0.63
2023-03-14T06:02:59.139Z,0.60
2023-03-14T06:05:32.297Z,2.40
2023-03-14T06:08:04.964Z,0.60
2023-03-14T06:10:34.687Z,0.90
2023-03-14T06:13:03.620Z,0.75
2023-03-14T06:15:36.492Z,1.70
2023-03-14T06:18:05.813Z,1.42
2023-03-14T06:20:40.120Z,1.10
2023-03-14T06:23:11.824Z,1.35
2023-03-14T06:25:40.413Z,0.90
2023-03-14T06:28:08.793Z,0.85
2023-03-14T06:30:37.507Z,1.20
2023-03-14T06:33:05.828Z,3.20
2023-03-14T06:35:36.442Z,2.20
2023-03-14T06:38:08.069Z,1.40
2023-03-14T06:40:37.708Z,1.90
2023-03-14T06:43:13.381Z,2.97
2023-03-14T06:45:44.908Z,3.40
2023-03-14T06:48:13.330Z,2.25
2023-03-14T06:50:49.602Z,3.50
2023-03-14T06:53:17.976Z,2.58
2023-03-14T06:55:48.547Z,3.92
2023-03-14T06:58:18.992Z,5.28
2023-03-14T07:00:47.896Z,3.88
2023-03-14T07:03:21.994Z,2.92
2023-03-14T07:05:52.263Z,7.50
2023-03-14T07:08:20.590Z,3.40
2023-03-14T07:10:50.225Z,3.53
2023-03-14T07:13:19.808Z,3.20
2023-03-14T07:15:59.577Z,2.88
2023-03-14T07:18:28.308Z,3.10
2023-03-14T07:20:57.793Z,2.08
2023-03-14T07:23:26.415Z,1.67
2023-03-14T07:25:57.384Z,1.25
2023-03-14T07:28:28.787Z,2.40
2023-03-14T07:31:09.068Z,1.83
2023-03-14T07:33:37.612Z,1.73
2023-03-14T07:36:07.661Z,2.80
2023-03-14T07:38:36.683Z,1.80
2023-03-14T07:41:27.898Z,1.58
2023-03-14T07:44:14.541Z,1.30
2023-03-14T07:46:43.251Z,2.30
2023-03-14T07:49:12.138Z,1.23
2023-03-14T07:51:40.355Z,1.48
2023-03-14T07:54:08.700Z,1.13
2023-03-14T07:56:38.407Z,1.25
2023-03-14T07:59:06.688Z,4.57
2023-03-14T08:01:35.003Z,3.13
2023-03-14T08:04:03.246Z,2.20
2023-03-14T08:06:31.813Z,3.00
2023-03-14T08:09:00.101Z,2.80
2023-03-14T08:11:28.476Z,1.33
2023-03-14T08:13:58.099Z,2.10
2023-03-14T08:16:26.459Z,1.77
2023-03-14T08:18:54.639Z,1.10
2023-03-14T08:21:22.860Z,2.00
2023-03-14T08:23:51.221Z,1.70
2023-03-14T08:26:19.470Z,2.53
2023-03-14T08:28:47.757Z,1.20
2023-03-14T08:31:17.556Z,1.60
2023-03-14T08:33:45.947Z,2.00
2023-03-14T08:36:14.405Z,2.40
2023-03-14T08:38:43.474Z,2.70
2023-03-14T08:41:12.067Z,2.30
2023-03-14T08:43:40.424Z,1.20
2023-03-14T08:46:09.000Z,1.42
2023-03-14T08:48:38.691Z,1.10
2023-03-14T08:51:08.160Z,2.35
2023-03-14T08:53:36.535Z,0.95
2023-03-14T08:56:07.095Z,1.00
2023-03-14T08:58:37.825Z,2.20
2023-03-14T09:01:06.854Z,1.33
2023-03-14T09:03:35.177Z,1.10
2023-03-14T09:06:09.700Z,1.20
2023-03-14T09:08:39.643Z,1.10
2023-03-14T09:11:09.852Z,1.00
2023-03-14T09:13:38.311Z,1.05
2023-03-14T09:16:07.513Z,1.60
2023-03-14T09:18:36.240Z,1.92
2023-03-14T09:21:04.997Z,1.30
2023-03-14T09:23:34.978Z,0.88
2023-03-14T09:26:03.564Z,1.40
2023-03-14T09:28:32.048Z,0.80
2023-03-14T09:31:00.339Z,1.10
2023-03-14T09:33:28.570Z,1.73
2023-03-14T09:36:01.104Z,1.30
2023-03-14T09:38:29.505Z,1.10
2023-03-14T09:41:02.723Z,1.35
2023-03-14T09:43:33.869Z,1.25
2023-03-14T09:46:05.024Z,3.38
2023-03-14T09:48:35.799Z,1.50
2023-03-14T09:51:08.871Z,2.00
2023-03-14T09:53:41.563Z,2.10
2023-03-14T09:56:16.746Z,1.20
2023-03-14T09:58:49.410Z,1.80
2023-03-14T10:01:21.621Z,1.00
2023-03-14T10:03:50.737Z,1.20
2023-03-14T10:06:19.446Z,1.33
2023-03-14T10:08:47.968Z,0.82
2023-03-14T10:11:19.607Z,1.50
2023-03-14T10:14:03.440Z,1.70
2023-03-14T10:16:33.795Z,1.02
2023-03-14T10:19:06.776Z,1.13
2023-03-14T10:21:40.207Z,1.33
2023-03-14T10:24:29.748Z,1.17
2023-03-14T10:27:04.281Z,0.70
2023-03-14T10:29:33.415Z,0.60
2023-03-14T10:32:03.598Z,0.97
2023-03-14T10:34:33.262Z,1.35
2023-03-14T10:37:10.036Z,1.30
2023-03-14T10:39:47.431Z,0.70
2023-03-14T10:42:22.442Z,1.50
2023-03-14T10:44:56.321Z,0.70
2023-03-14T10:47:27.394Z,1.80
2023-03-14T10:49:55.894Z,0.60
2023-03-14T10:52:31.616Z,0.70
2023-03-14T10:55:15.108Z,0.77
2023-03-14T10:57:45.747Z,1.42
2023-03-14T11:00:19.534Z,0.70
2023-03-14T11:03:06.690Z,3.60
2023-03-14T11:05:44.645Z,0.70
2023-03-14T11:08:18.333Z,1.00
2023-03-14T11:10:50.124Z,0.70
2023-03-14T11:13:26.472Z,1.10
2023-03-14T11:16:08.321Z,4.10
2023-03-14T11:18:54.169Z,3.10
2023-03-14T11:21:30.574Z,0.70
2023-03-14T11:24:13.005Z,1.10
2023-03-14T11:26:50.562Z,0.70
2023-03-14T11:29:28.218Z,0.70
2023-03-14T11:32:00.329Z,1.00
2023-03-14T11:34:35.547Z,1.50
2023-03-14T11:37:09.140Z,0.80
2023-03-14T11:39:41.843Z,1.30
2023-03-14T11:42:15.242Z,2.80
2023-03-14T11:44:48.769Z,1.00
2023-03-14T11:47:21.744Z,0.70
2023-03-14T11:49:53.099Z,3.13
2023-03-14T11:52:26.107Z,1.90
2023-03-14T11:55:00.259Z,2.23
2023-03-14T11:57:30.007Z,1.60
2023-03-14T12:00:05.671Z,2.42
2023-03-14T12:02:50.060Z,1.10
2023-03-14T12:05:42.632Z,1.60
2023-03-14T12:08:55.450Z,2.78
2023-03-14T12:11:31.950Z,1.42
2023-03-14T12:14:00.806Z,2.78
2023-03-14T12:16:41.600Z,1.40
2023-03-14T12:19:35.560Z,4.45
2023-03-14T12:22:24.250Z,1.60
2023-03-14T12:24:56.839Z,5.10
2023-03-14T12:27:49.707Z,2.30
2023-03-14T12:30:28.393Z,4.33
2023-03-14T12:33:29.662Z,4.80
2023-03-14T12:36:19.695Z,5.53
2023-03-14T12:39:10.480Z,4.10
2023-03-14T12:41:45.500Z,1.88
2023-03-14T12:44:46.261Z,4.95
2023-03-14T12:47:55.147Z,4.22
2023-03-14T12:50:29.268Z,4.82
2023-03-14T12:53:34.526Z,2.30
2023-03-14T12:56:10.170Z,1.77
2023-03-14T12:58:42.777Z,2.90
2023-03-14T13:01:19.435Z,4.50
2023-03-14T13:03:49.472Z,3.63
2023-03-14T13:06:52.164Z,5.93
2023-03-14T13:09:54.077Z,6.83
2023-03-14T13:12:31.246Z,7.75
2023-03-14T13:15:01.621Z,7.80
2023-03-14T13:17:36.600Z,5.15
2023-03-14T13:20:14.881Z,6.13
2023-03-14T13:22:49.659Z,7.07
2023-03-14T13:25:19.517Z,10.33
2023-03-14T13:27:47.845Z,9.30
2023-03-14T13:30:19.484Z,6.43
2023-03-14T13:32:49.495Z,12.00
2023-03-14T13:35:20.856Z,8.40
2023-03-14T13:38:10.202Z,7.50
2023-03-14T13:40:40.996Z,11.52
2023-03-14T13:43:19.984Z,12.20
2023-03-14T13:45:53.701Z,10.23
2023-03-14T13:48:23.226Z,7.40
2023-03-14T13:50:57.438Z,9.90
2023-03-14T13:53:27.553Z,8.77
2023-03-14T13:55:55.878Z,13.18
2023-03-14T13:58:27.512Z,11.35
2023-03-14T14:01:03.675Z,13.77
2023-03-14T14:03:34.874Z,8.85
2023-03-14T14:06:03.400Z,10.80
2023-03-14T14:08:33.187Z,9.30
2023-03-14T14:11:04.090Z,14.93
2023-03-14T14:13:35.466Z,5.70
2023-03-14T14:16:05.789Z,11.82
2023-03-14T14:18:34.961Z,5.20
2023-03-14T14:21:03.439Z,12.02
2023-03-14T14:23:33.491Z,9.90
2023-03-14T14:26:02.255Z,9.35
2023-03-14T14:28:32.126Z,11.02
2023-03-14T14:31:06.716Z,8.43
2023-03-14T14:33:42.883Z,12.15
2023-03-14T14:36:20.275Z,8.32
2023-03-14T14:38:59.475Z,9.27
2023-03-14T14:41:33.681Z,8.30
2023-03-14T14:44:02.245Z,14.35
2023-03-14T14:46:34.055Z,7.90
2023-03-14T14:49:06.793Z,4.68
2023-03-14T14:51:40.499Z,4.97
2023-03-14T14:54:16.688Z,8.45
2023-03-14T14:56:50.718Z,7.68
2023-03-14T14:59:29.871Z,8.67
2023-03-14T15:01:59.473Z,3.10
2023-03-14T15:04:27.936Z,8.63
2023-03-14T15:06:56.184Z,4.85
2023-03-14T15:09:26.307Z,9.00
2023-03-14T15:11:54.626Z,8.07
2023-03-14T15:14:22.821Z,2.70
2023-03-14T15:16:51.061Z,6.45
2023-03-14T15:19:25.213Z,4.53
2023-03-14T15:21:54.541Z,5.53
2023-03-14T15:24:23.576Z,6.05
2023-03-14T15:26:53.529Z,5.90
2023-03-14T15:29:21.711Z,4.70
2023-03-14T15:31:49.931Z,4.55
2023-03-14T15:34:18.164Z,5.70
2023-03-14T15:36:46.526Z,5.13
2023-03-14T15:39:14.909Z,5.60
2023-03-14T15:41:43.150Z,5.75
2023-03-14T15:44:12.735Z,6.60
2023-03-14T15:46:41.023Z,3.00
2023-03-14T15:49:11.251Z,3.50
2023-03-14T15:51:39.418Z,5.90
2023-03-14T15:54:07.685Z,5.90
2023-03-14T15:56:36.150Z,6.20
2023-03-14T15:59:04.582Z,6.72
2023-03-14T16:01:34.524Z,9.70
2023-03-14T16:04:05.061Z,3.78
2023-03-14T16:06:33.269Z,4.45
2023-03-14T16:09:01.446Z,6.50
2023-03-14T16:11:29.663Z,1.88
2023-03-14T16:13:57.830Z,2.65
2023-03-14T16:16:26.260Z,7.70
2023-03-14T16:18:55.923Z,4.90
2023-03-14T16:21:24.309Z,4.53
2023-03-14T16:23:52.737Z,6.15
2023-03-14T16:26:22.054Z,4.70
2023-03-14T16:28:50.566Z,2.50
2023-03-14T16:31:23.679Z,4.70
2023-03-14T16:33:52.105Z,5.70
2023-03-14T16:36:21.775Z,3.35
2023-03-14T16:38:50.071Z,4.60
2023-03-14T16:41:20.091Z,6.90
2023-03-14T16:43:52.196Z,1.80
2023-03-14T16:46:22.327Z,2.60
2023-03-14T16:48:50.938Z,4.05
2023-03-14T16:51:19.399Z,6.40
2023-03-14T16:53:49.330Z,6.50
2023-03-14T16:56:18.676Z,7.07
2023-03-14T16:58:47.167Z,3.70
2023-03-14T17:01:18.368Z,3.93
2023-03-14T17:03:48.110Z,8.38
2023-03-14T17:06:18.281Z,2.10
2023-03-14T17:08:47.892Z,3.55
2023-03-14T17:11:16.165Z,3.65
2023-03-14T17:13:44.524Z,8.85
2023-03-14T17:16:14.671Z,4.57
2023-03-14T17:18:43.262Z,3.25
2023-03-14T17:21:11.440Z,5.95
2023-03-14T17:23:40.096Z,5.63
2023-03-14T17:26:09.737Z,6.63
2023-03-14T17:28:38.022Z,9.30
2023-03-14T17:31:08.534Z,10.17
2023-03-14T17:33:37.821Z,5.03
2023-03-14T17:36:07.258Z,14.38
2023-03-14T17:38:36.476Z,8.50
2023-03-14T17:41:04.888Z,3.28
2023-03-14T17:43:34.690Z,3.30
2023-03-14T17:46:06.323Z,3.47
2023-03-14T17:48:34.686Z,6.37
2023-03-14T17:51:04.106Z,4.47
2023-03-14T17:53:32.669Z,4.60
2023-03-14T17:56:00.904Z,3.65
2023-03-14T17:58:30.081Z,3.95
2023-03-14T18:01:08.396Z,5.60
2023-03-14T18:03:36.688Z,4.47
2023-03-14T18:06:09.349Z,4.43
2023-03-14T18:08:38.404Z,6.28
2023-03-14T18:11:07.660Z,4.53
2023-03-14T18:13:38.470Z,3.60
2023-03-14T18:16:09.353Z,5.55
2023-03-14T18:18:37.729Z,5.88
2023-03-14T18:21:07.295Z,7.07
2023-03-14T18:23:35.584Z,5.93
2023-03-14T18:26:04.328Z,5.70
2023-03-14T18:28:32.861Z,8.27
2023-03-14T18:31:04.490Z,5.78
2023-03-14T18:33:38.087Z,9.73
2023-03-14T18:36:06.795Z,4.50
2023-03-14T18:38:35.454Z,6.45
2023-03-14T18:41:07.005Z,6.20
2023-03-14T18:43:35.265Z,5.70
2023-03-14T18:46:04.228Z,7.80
2023-03-14T18:48:34.061Z,5.70
2023-03-14T18:51:03.831Z,3.92
2023-03-14T18:53:33.006Z,8.13
2023-03-14T18:56:01.783Z,7.90
2023-03-14T18:58:30.049Z,5.40
2023-03-14T19:00:58.795Z,5.07
2023-03-14T19:03:27.471Z,8.05
2023-03-14T19:05:58.385Z,4.88
2023-03-14T19:08:28.401Z,3.03
2023-03-14T19:11:01.103Z,5.68
2023-03-14T19:13:30.629Z,5.90
2023-03-14T19:15:59.447Z,7.90
2023-03-14T19:18:27.952Z,5.87
2023-03-14T19:21:03.521Z,4.63
2023-03-14T19:23:32.308Z,8.93
2023-03-14T19:26:02.761Z,4.15
2023-03-14T19:28:32.109Z,4.43
2023-03-14T19:31:02.630Z,4.07
2023-03-14T19:33:32.148Z,6.88
2023-03-14T19:36:02.653Z,7.88
2023-03-14T19:38:30.952Z,11.43
2023-03-14T19:41:00.528Z,10.75
2023-03-14T19:43:28.916Z,6.73
2023-03-14T19:45:57.229Z,8.13
2023-03-14T19:48:30.350Z,7.00
2023-03-14T19:51:02.384Z,6.63
2023-03-14T19:53:31.347Z,5.57
2023-03-14T19:55:59.650Z,3.45
2023-03-14T19:58:27.852Z,3.53
2023-03-14T20:00:58.008Z,7.55
2023-03-14T20:03:26.528Z,3.53
2023-03-14T20:05:55.427Z,3.25
2023-03-14T20:08:25.265Z,3.13
2023-03-14T20:10:53.467Z,11.57
2023-03-14T20:13:22.722Z,6.80
2023-03-14T20:15:53.071Z,8.45
2023-03-14T20:18:23.109Z,6.38
2023-03-14T20:20:52.188Z,6.30
2023-03-14T20:23:20.552Z,7.10
2023-03-14T20:25:56.090Z,6.20
2023-03-14T20:28:25.106Z,9.48
2023-03-14T20:30:53.694Z,4.50
2023-03-14T20:33:22.447Z,6.60
2023-03-14T20:35:56.156Z,4.55
2023-03-14T20:38:26.772Z,6.60
2023-03-14T20:40:58.781Z,7.18
2023-03-14T20:43:27.468Z,8.13
2023-03-14T20:45:56.810Z,14.48
2023-03-14T20:48:26.743Z,6.60
2023-03-14T20:50:55.608Z,10.48
2023-03-14T20:53:24.670Z,8.75
2023-03-14T20:55:55.981Z,9.63
2023-03-14T20:58:25.841Z,8.07
2023-03-14T21:00:57.133Z,17.50
2023-03-14T21:03:26.059Z,8.75
2023-03-14T21:05:54.304Z,5.80
2023-03-14T21:08:24.646Z,5.80
2023-03-14T21:10:54.428Z,5.03
2023-03-14T21:13:22.917Z,9.05
2023-03-14T21:15:52.647Z,5.60
2023-03-14T21:18:23.114Z,6.30
2023-03-14T21:20:54.925Z,9.47
2023-03-14T21:23:26.392Z,10.52
2023-03-14T21:25:55.805Z,13.32
2023-03-14T21:28:24.374Z,14.13
2023-03-14T21:30:54.526Z,6.55
2023-03-14T21:33:23.277Z,8.10
2023-03-14T21:35:53.794Z,11.65
2023-03-14T21:38:22.212Z,5.95
2023-03-14T21:40:50.501Z,17.00
2023-03-14T21:43:19.797Z,12.32
2023-03-14T21:45:49.313Z,6.55
2023-03-14T21:48:19.325Z,9.23
2023-03-14T21:50:48.089Z,8.70
2023-03-14T21:53:16.460Z,9.23
2023-03-14T21:55:45.356Z,11.70
2023-03-14T21:58:14.631Z,6.23
2023-03-14T22:00:49.484Z,7.65
2023-03-14T22:03:20.562Z,8.52
2023-03-14T22:05:49.152Z,9.75
2023-03-14T22:08:19.750Z,8.03
2023-03-14T22:10:49.767Z,7.30
2023-03-14T22:13:18.866Z,6.43
2023-03-14T22:15:48.453Z,8.93
2023-03-14T22:18:17.256Z,6.40
2023-03-14T22:20:47.441Z,7.47
2023-03-14T22:23:15.763Z,9.77
2023-03-14T22:25:44.959Z,10.02
2023-03-14T22:28:13.241Z,7.60
2023-03-14T22:30:41.587Z,9.02
2023-03-14T22:33:10.095Z,4.20
2023-03-14T22:35:38.475Z,9.30
2023-03-14T22:38:08.157Z,8.40
2023-03-14T22:40:39.428Z,3.67
2023-03-14T22:43:07.618Z,4.53
2023-03-14T22:45:35.897Z,5.55
2023-03-14T22:48:04.548Z,5.80
2023-03-14T22:50:32.765Z,5.25
2023-03-14T22:53:00.953Z,5.00
2023-03-14T22:55:33.518Z,4.25
2023-03-14T22:58:02.374Z,3.78
2023-03-14T23:00:33.038Z,6.00
2023-03-14T23:03:01.309Z,6.63
2023-03-14T23:05:30.494Z,7.65
2023-03-14T23:07:58.717Z,6.70
2023-03-14T23:10:27.032Z,4.13
2023-03-14T23:12:57.683Z,10.80
2023-03-14T23:15:26.147Z,8.55
2023-03-14T23:17:54.677Z,5.90
2023-03-14T23:20:23.441Z,5.68
2023-03-14T23:22:52.228Z,5.75
2023-03-14T23:25:20.909Z,5.25
2023-03-14T23:27:49.137Z,6.13
2023-03-14T23:30:19.888Z,8.00
2023-03-14T23:32:48.485Z,7.93
2023-03-14T23:35:16.867Z,5.80
2023-03-14T23:37:45.109Z,7.30
2023-03-14T23:40:14.838Z,4.45
2023-03-14T23:42:43.069Z,6.20
2023-03-14T23:45:14.123Z,12.02
2023-03-14T23:47:44.120Z,7.50
2023-03-14T23:50:13.169Z,7.90
2023-03-14T23:52:41.734Z,8.80
2023-03-14T23:55:11.067Z,8.63
2023-03-14T23:57:39.600Z,5.90
